createdAt,value
2022-12-25T00:00:46.386Z,100443.48
2022-12-25T00:06:16.126Z,100443.66
2022-12-25T00:11:23.396Z,100449.44
2022-12-25T00:16:30.543Z,100454.20
2022-12-25T00:21:37.768Z,100458.61
2022-12-25T00:26:44.833Z,100461.00
2022-12-25T00:31:52.003Z,100464.73
2022-12-25T00:36:58.960Z,100466.27
2022-12-25T00:42:21.394Z,100469.34
2022-12-25T00:47:30.565Z,100479.55
2022-12-25T00:52:37.620Z,100480.23
2022-12-25T00:57:44.588Z,100485.14
2022-12-25T01:02:51.712Z,100487.67
2022-12-25T01:07:58.882Z,100491.61
2022-12-25T01:13:05.767Z,100499.98
2022-12-25T01:18:13.067Z,100509.73
2022-12-25T01:23:20.426Z,100509.23
2022-12-25T01:28:27.373Z,100514.54
2022-12-25T01:33:35.750Z,100524.61
2022-12-25T01:38:42.999Z,100535.55
2022-12-25T01:44:05.771Z,100534.56
2022-12-25T01:49:16.335Z,100537.82
2022-12-25T01:54:28.388Z,100533.22
2022-12-25T01:59:35.833Z,100533.93
2022-12-25T02:04:49.447Z,100531.05
2022-12-25T02:09:57.053Z,100540.77
2022-12-25T02:15:07.038Z,100537.36
2022-12-25T02:20:41.443Z,100543.64
2022-12-25T02:26:04.623Z,100546.52
2022-12-25T02:31:14.934Z,100547.71
2022-12-25T02:36:27.943Z,100546.67
2022-12-25T02:41:40.606Z,100555.17
2022-12-25T02:47:05.906Z,100559.11
2022-12-25T02:52:34.323Z,100562.19
2022-12-25T02:58:04.425Z,100569.52
2022-12-25T03:03:31.860Z,100572.41
2022-12-25T03:08:43.541Z,100578.88
2022-12-25T03:13:53.349Z,100567.80
2022-12-25T03:19:21.330Z,100573.59
2022-12-25T03:24:46.137Z,100579.89
2022-12-25T03:30:11.021Z,100586.52
2022-12-25T03:35:25.648Z,100601.62
2022-12-25T03:40:58.128Z,100604.51
2022-12-25T03:46:28.681Z,100607.58
2022-12-25T03:51:58.569Z,100615.91
2022-12-25T03:57:23.596Z,100622.67
2022-12-25T04:02:48.297Z,100618.05
2022-12-25T04:08:13.276Z,100622.27
2022-12-25T04:13:47.033Z,100618.48
2022-12-25T04:19:11.543Z,100611.68
2022-12-25T04:24:36.448Z,100605.38
2022-12-25T04:30:00.921Z,100613.33
2022-12-25T04:35:26.757Z,100616.42
2022-12-25T04:40:34.186Z,100610.00
2022-12-25T04:45:41.116Z,100612.39
2022-12-25T04:50:48.203Z,100617.14
2022-12-25T04:56:03.526Z,100628.88
2022-12-25T05:01:10.940Z,100633.30
2022-12-25T05:06:17.979Z,100636.38
2022-12-25T05:11:24.790Z,100634.33
2022-12-25T05:16:31.836Z,100642.83
2022-12-25T05:21:38.930Z,100648.61
2022-12-25T05:26:45.921Z,100653.13
2022-12-25T05:31:52.830Z,100667.39
2022-12-25T05:36:59.972Z,100667.52
2022-12-25T05:42:07.064Z,100668.64
2022-12-25T05:47:13.991Z,100675.54
2022-12-25T05:52:20.837Z,100678.37
2022-12-25T05:57:29.155Z,100683.20
2022-12-25T06:02:40.354Z,100689.25
2022-12-25T06:07:47.581Z,100688.80
2022-12-25T06:12:56.650Z,100698.08
2022-12-25T06:18:03.992Z,100698.13
2022-12-25T06:23:11.402Z,100718.27
2022-12-25T06:28:18.414Z,100721.49
2022-12-25T06:33:25.303Z,100724.64
2022-12-25T06:38:32.702Z,100737.74
2022-12-25T06:43:40.267Z,100746.59
2022-12-25T06:48:49.603Z,100752.34
2022-12-25T06:53:58.120Z,100755.65
2022-12-25T06:59:07.015Z,100754.55
2022-12-25T07:04:18.219Z,100749.10
2022-12-25T07:09:25.147Z,100753.85
2022-12-25T07:14:32.328Z,100753.73
2022-12-25T07:19:44.696Z,100759.96
2022-12-25T07:24:52.509Z,100768.30
2022-12-25T07:29:59.387Z,100766.29
2022-12-25T07:35:07.310Z,100772.09
2022-12-25T07:40:15.183Z,100778.63
2022-12-25T07:45:22.338Z,100773.54
2022-12-25T07:50:29.277Z,100773.48
2022-12-25T07:55:36.351Z,100767.41
2022-12-25T08:00:43.297Z,100769.88
2022-12-25T08:05:50.510Z,100781.80
2022-12-25T08:10:57.501Z,100778.48
2022-12-25T08:16:07.952Z,100779.48
2022-12-25T08:21:16.005Z,100780.98
2022-12-25T08:26:25.067Z,100778.12
2022-12-25T08:31:33.461Z,100776.52
2022-12-25T08:36:42.977Z,100791.14
2022-12-25T08:41:50.258Z,100800.81
2022-12-25T08:46:57.189Z,100809.87
2022-12-25T08:52:04.075Z,100802.85
2022-12-25T08:57:11.087Z,100811.11
2022-12-25T09:02:19.790Z,100813.91
2022-12-25T09:07:27.657Z,100819.99
2022-12-25T09:12:37.927Z,100817.39
2022-12-25T09:17:44.935Z,100811.23
2022-12-25T09:22:52.099Z,100816.66
2022-12-25T09:27:59.874Z,100817.80
2022-12-25T09:33:07.251Z,100822.23
2022-12-25T09:38:14.183Z,100820.02
2022-12-25T09:43:24.635Z,100814.36
2022-12-25T09:48:34.899Z,100803.09
2022-12-25T09:53:46.358Z,100806.10
2022-12-25T09:58:54.839Z,100809.05
2022-12-25T10:04:40.614Z,100813.70
2022-12-25T10:10:00.909Z,100798.45
2022-12-25T10:15:31.102Z,100784.02
2022-12-25T10:20:47.047Z,100787.47
2022-12-25T10:25:55.274Z,100781.20
2022-12-25T10:31:16.905Z,100776.10
2022-12-25T10:36:26.998Z,100774.77
2022-12-25T10:41:54.529Z,100764.58
2022-12-25T10:47:03.213Z,100764.41
2022-12-25T10:52:23.406Z,100754.54
2022-12-25T10:57:30.538Z,100745.00
2022-12-25T11:02:41.820Z,100748.59
2022-12-25T11:07:55.123Z,100743.27
2022-12-25T11:13:06.303Z,100738.81
2022-12-25T11:18:25.592Z,100729.23
2022-12-25T11:23:35.067Z,100714.67
2022-12-25T11:28:45.965Z,100702.16
2022-12-25T11:34:00.297Z,100706.04
2022-12-25T11:39:21.749Z,100712.81
2022-12-25T11:44:43.639Z,100710.70
2022-12-25T11:49:53.961Z,100707.02
2022-12-25T11:55:17.285Z,100700.27
2022-12-25T12:00:26.635Z,100694.05
2022-12-25T12:05:40.201Z,100699.02
2022-12-25T12:11:16.095Z,100701.95
2022-12-25T12:16:24.013Z,100694.73
2022-12-25T12:21:32.819Z,100689.36
2022-12-25T12:26:42.641Z,100682.30
2022-12-25T12:31:52.290Z,100683.65
2022-12-25T12:37:06.132Z,100675.48
2022-12-25T12:42:20.157Z,100665.61
2022-12-25T12:53:27.959Z,100665.49
2022-12-25T12:58:45.329Z,100678.05
2022-12-25T13:04:17.241Z,100672.34
2022-12-25T13:09:36.681Z,100670.61
2022-12-25T13:14:50.386Z,100657.23
2022-12-25T13:20:02.403Z,100649.60
2022-12-25T13:25:22.474Z,100651.40
2022-12-25T13:30:34.164Z,100654.86
2022-12-25T13:35:48.005Z,100651.64
2022-12-25T13:41:16.693Z,100649.15
2022-12-25T13:46:28.576Z,100647.91
2022-12-25T13:51:35.868Z,100633.90
2022-12-25T13:56:53.480Z,100618.65
2022-12-25T14:02:04.282Z,100619.91
2022-12-25T14:07:13.665Z,100605.83
2022-12-25T14:12:21.417Z,100622.26
2022-12-25T14:17:29.491Z,100628.98
2022-12-25T14:22:38.690Z,100628.33
2022-12-25T14:27:51.757Z,100638.41
2022-12-25T14:32:59.954Z,100635.28
2022-12-25T14:38:11.654Z,100635.58
2022-12-25T14:43:26.952Z,100632.77
2022-12-25T14:48:34.880Z,100631.84
2022-12-25T14:53:51.364Z,100629.73
2022-12-25T14:59:00.134Z,100633.75
2022-12-25T15:04:14.390Z,100621.70
2022-12-25T15:09:21.367Z,100607.24
2022-12-25T15:14:32.182Z,100628.14
2022-12-25T15:19:46.074Z,100635.34
2022-12-25T15:25:00.372Z,100603.81
2022-12-25T15:30:11.407Z,100606.94
2022-12-25T15:35:22.294Z,100623.70
2022-12-25T15:40:30.403Z,100611.79
2022-12-25T15:45:38.393Z,100596.44
2022-12-25T15:50:46.932Z,100593.41
2022-12-25T15:55:54.229Z,100597.24
2022-12-25T16:01:01.473Z,100605.46
2022-12-25T16:06:11.097Z,100606.84
2022-12-25T16:11:18.066Z,100589.30
2022-12-25T16:16:25.899Z,100569.70
2022-12-25T16:21:42.257Z,100557.27
2022-12-25T16:26:49.484Z,100550.30
2022-12-25T16:31:56.928Z,100543.64
2022-12-25T16:37:04.465Z,100543.11
2022-12-25T16:42:12.527Z,100537.16
2022-12-25T16:47:24.004Z,100542.80
2022-12-25T16:52:31.730Z,100539.23
2022-12-25T16:57:40.905Z,100523.35
2022-12-25T17:02:51.585Z,100529.16
2022-12-25T17:08:04.105Z,100534.80
2022-12-25T17:13:13.485Z,100550.33
2022-12-25T17:18:22.539Z,100544.37
2022-12-25T17:23:32.210Z,100517.95
2022-12-25T17:28:42.373Z,100503.44
2022-12-25T17:33:50.095Z,100496.64
2022-12-25T17:39:04.609Z,100504.00
2022-12-25T17:44:15.145Z,100514.92
2022-12-25T17:49:23.614Z,100513.23
2022-12-25T17:54:30.804Z,100506.42
2022-12-25T17:59:37.795Z,100503.55
2022-12-25T18:04:45.080Z,100491.61
2022-12-25T18:09:51.954Z,100481.57
2022-12-25T18:14:58.976Z,100478.02
2022-12-25T18:20:07.137Z,100469.65
2022-12-25T18:25:14.148Z,100444.59
2022-12-25T18:30:21.518Z,100444.77
2022-12-25T18:35:29.977Z,100442.21
2022-12-25T18:40:40.685Z,100434.56
2022-12-25T18:45:47.584Z,100427.74
2022-12-25T18:50:59.516Z,100439.50
2022-12-25T18:56:10.748Z,100423.83
2022-12-25T19:01:19.486Z,100420.41
2022-12-25T19:06:29.787Z,100418.71
2022-12-25T19:11:42.062Z,100402.85
2022-12-25T19:16:52.284Z,100389.73
2022-12-25T19:22:00.034Z,100386.15
2022-12-25T19:27:07.454Z,100383.43
2022-12-25T19:32:14.419Z,100380.50
2022-12-25T19:37:21.408Z,100367.70
2022-12-25T19:42:28.330Z,100357.30
2022-12-25T19:47:35.333Z,100352.34
2022-12-25T19:52:42.161Z,100357.10
2022-12-25T19:57:49.010Z,100349.77
2022-12-25T20:02:56.003Z,100339.52
2022-12-25T20:08:04.418Z,100326.09
2022-12-25T20:13:11.350Z,100319.13
2022-12-25T20:18:18.481Z,100302.98
2022-12-25T20:23:25.783Z,100292.14
2022-12-25T20:28:34.554Z,100293.86
2022-12-25T20:33:42.178Z,100301.20
2022-12-25T20:38:49.275Z,100308.37
2022-12-25T20:43:56.465Z,100298.83
2022-12-25T20:49:03.802Z,100284.33
2022-12-25T20:54:12.782Z,100280.77
2022-12-25T20:59:19.751Z,100260.80
2022-12-25T21:04:29.233Z,100272.73
2022-12-25T21:09:36.730Z,100279.52
2022-12-25T21:14:43.700Z,100266.06
2022-12-25T21:19:50.763Z,100250.70
2022-12-25T21:24:57.731Z,100239.08
2022-12-25T21:30:14.257Z,100219.10
2022-12-25T21:35:22.946Z,100206.63
2022-12-25T21:40:30.343Z,100210.52
2022-12-25T21:45:37.595Z,100214.08
2022-12-25T21:51:02.397Z,100217.12
2022-12-25T21:56:09.977Z,100225.45
2022-12-25T22:01:17.543Z,100241.27
2022-12-25T22:06:43.946Z,100247.05
2022-12-25T22:12:08.633Z,100241.91
2022-12-25T22:17:33.541Z,100230.48
2022-12-25T22:22:40.602Z,100226.03
2022-12-25T22:27:48.763Z,100216.48
2022-12-25T22:32:56.431Z,100218.52
2022-12-25T22:38:03.306Z,100208.98
2022-12-25T22:43:10.246Z,100192.27
2022-12-25T22:48:17.360Z,100184.45
2022-12-25T22:53:24.414Z,100167.21
2022-12-25T22:58:32.582Z,100164.63
2022-12-25T23:03:40.094Z,100156.44
2022-12-25T23:08:52.909Z,100137.33
2022-12-25T23:14:18.156Z,100143.44
2022-12-25T23:19:43.464Z,100144.80
2022-12-25T23:25:09.795Z,100155.84
2022-12-25T23:30:22.882Z,100157.88
2022-12-25T23:35:30.201Z,100138.42
2022-12-25T23:40:37.623Z,100133.48
2022-12-25T23:45:44.885Z,100130.73
2022-12-25T23:50:52.169Z,100142.29
2022-12-25T23:55:59.955Z,100147.71
